Aviation Digital Data Service (ADDS)

Output produced by METARs form (0806 UTC 26 June 2016)
found at http://aviationweather.gov/adds/metars/
 
KCDW 260753Z AUTO 00000KT 10SM CLR 17/12 A3025 RMK AO2 SLP247 T01670117 TSNO
KMMU 260755Z AUTO 00000KT 10SM CLR 12/10 A3024 RMK AO2
KFWN 260753Z AUTO 00000KT 10SM OVC070 16/13 A3024 RMK AO2 SLP238 T01610128
KTEB 260751Z 00000KT 10SM BKN080 19/16 A3023 RMK AO2 SLP236 T01890156
KTEB 260540Z 2606/2706 VRB03KT P6SM SKC 
     FM261600 18008KT P6SM FEW250 
     FM270300 VRB03KT P6SM SKC
       
KEWR 260751Z 19003KT 10SM SCT085 19/15 A3023 RMK AO2 SLP237 T01940150
KEWR 260540Z 2606/2712 VRB04KT P6SM SKC 
     FM261600 18008KT P6SM FEW250 
     FM261900 18010KT P6SM FEW250 
     FM270300 VRB04KT P6SM SKC
       
KDXR 260753Z AUTO 00000KT 10SM CLR 14/12 A3026 RMK AO2 SLP244 T01440117
KHPN 260756Z AUTO 00000KT 10SM CLR 16/13 A3024 RMK AO2 SLP235 T01560133 TSNO
KHPN 260540Z 2606/2706 VRB03KT P6SM SKC 
     FM261600 17008KT P6SM FEW250 
     FM270300 VRB03KT P6SM SKC AMD NOT SKED
       
KABE 260751Z 00000KT 10SM CLR 18/13 A3024 RMK AO2 SLP237 T01830133 $
KABE 260540Z 2606/2706 VRB03KT P6SM SKC 
     FM261600 22006KT P6SM FEW050 
     FM270000 20004KT P6SM SKC
       
KAVP 260754Z AUTO 00000KT 10SM CLR 18/13 A3022 RMK AO2 SLP226 T01780133
KAVP 260529Z 2606/2706 VRB03KT P6SM SCT250 
     FM261500 23008KT P6SM SCT250 
     FM270000 20003KT P6SM SCT250
       
KSWF 260645Z 00000KT 10SM SCT070 19/10 A3024
KSWF 260540Z 2606/2712 00000KT P6SM SKC 
     FM261600 22008KT P6SM FEW250 
     FM270200 VRB03KT P6SM FEW250 AMD NOT SKED
       
KMSV 260755Z AUTO 00000KT 10SM CLR 14/12 A3027 RMK AO1
KPOU 260753Z 00000KT 10SM CLR 17/12 A3022 RMK AO2 SLP231 T01670117
KPOU 260524Z 2606/2706 14004KT P6SM SKC 
     FM261300 21006KT P6SM SCT040 SCT250
       
KACY 260754Z 00000KT 9SM CLR 14/13 A3023 RMK AO2 SLP237 T01440133
KACY 260540Z 2606/2706 VRB02KT P6SM SKC 
     FM261500 15007KT P6SM FEW050 
     FM270000 VRB03KT P6SM SKC
       
KGON 260756Z AUTO 33003KT 10SM CLR 13/13 A3024 RMK AO2 SLP239 T01280128
KGON 260540Z 2606/2706 VRB03KT P6SM SKC 
     TEMPO 2610/2612 5SM BR 
     FM261500 17007KT P6SM SKC 
     FM261800 18010KT P6SM FEW250 
     FM270200 VRB03KT P6SM SKC
       


 (Extracted from FBUS31 KWNO 260801)
FD1US1
DATA BASED ON 260600Z    
VALID 261200Z   FOR USE 0800-1500Z. TEMPS NEG ABV 24000

FT  3000    6000    9000   12000   18000   24000  30000  34000  39000
BDL 2805 9900+12 9900+06 3608+02 3523-10 3633-20 354735 365344 026255
BGR 2205 9900+12 9900+05 9900+01 3413-11 3621-22 363337 355545 366655
CAR 2310 2413+11 2412+05 2511+00 2817-11 3015-23 323038 345445 357255
PWM 2605 0305+11 9900+06 3607+01 3519-11 3629-21 354036 365945 017055
EMI 1806 1511+11 3205+09 3511+05 3216-08 3422-19 343934 354444 354955
ACK 0311 0314+11 0212+06 0111+01 0120-12 0141-23 016236 017045 016755
BOS 9900 0408+11 0207+06 3609+01 3621-11 0137-21 364636 366045 016555
BML 2408 2206+12 2305+06 3006+02 3321-10 3422-21 354435 366044 367155
ACY 0707 0613+11 9900+07 3411+04 3522-09 3629-20 344435 355145 365056
ALB 2307 2507+12 2905+06 3308+03 3419-09 3428-20 354234 364644 016055
BUF 2318 2318+14 2510+11 3208+06 3111-08 3226-17 342833 352543 353554
JFK 2807 0605+11 0307+06 0108+03 3524-09 3632-20 354635 355245 014955
PLB 2310 2313+12 2510+08 2810+03 3120-10 3429-20 353934 354743 356354
SYR 2313 2412+13 2612+08 3211+05 3317-09 3327-19 353334 364042 364654
CLE 2319 2514+16 2808+13 2506+06 2813-07 3011-17 331732 352143 341955
CMH 2214 2610+16 3109+13 3008+05 2909-07 9900-17 271732 341442 321754
CVG 2311 2906+18 2812+12 2509+05 2508-06 9900-17 990032 340543 351554
AGC 2308 2207+14 2605+10 3506+07 3112-08 3313-18 322733 343043 353254
AVP 2510 2107+13 9900+06 3510+04 3314-08 3424-19 353734 364244 014555
PSB      2005+13 9900+09 3409+06 3214-08 3425-18 343333 353944 364154
ORF 0512 0409+14 0110+10 3613+05 3316-08 0119-19 013634 015644 016155
RIC 0712 0311+13 3509+10 3409+06 3212-08 3615-18 362934 365144 364654
ROA 1606 9900+15 3408+08 9900+06 3209-08 1010-17 040933 363143 341855
CRW 2111 9900+16 3005+11 3410+07 3213-08 9900-17 990032 331243 331655
EKN      9900+15 2607+09 3609+07 3111-08 3205-17 322333 343442 343355


 (Extracted from FBUS33 KWNO 260801)
FD3US3
DATA BASED ON 260600Z    
VALID 261800Z   FOR USE 1500-0000Z. TEMPS NEG ABV 24000

FT  3000    6000    9000   12000   18000   24000  30000  34000  39000
BDL 2007 2906+13 3410+07 3506+03 3519-09 3628-19 024633 025143 365854
BGR 2209 9900+12 2605+06 9900+02 3613-10 3619-21 025034 015544 366754
CAR 2013 2317+13 2416+07 2514+01 3014-10 3423-20 363635 354846 365853
PWM 2306 9900+12 3007+06 3307+02 0119-10 0123-20 025634 025844 366854
EMI 1807 1807+12 3607+09 3508+06 3317-07 3620-18 362633 032642 024354
ACK 0308 0210+12 0110+07 0112+02 0221-11 0137-22 015536 027444 026955
BOS 9900 3305+12 3307+06 3609+02 0123-10 3626-21 025934 026444 017254
BML 2007 2209+13 2614+07 2808+02 3514-10 0126-19 363834 364844 355955
ACY 9900 0605+11 0105+07 3608+05 3418-08 3624-19 013634 034343 025754
ALB 1906 2610+14 2812+07 3207+03 3516-09 3625-18 012933 363843 365254
BUF 2316 2319+16 2513+11 2611+06 2816-08 2919-17 301632 321742 322154
JFK 9900 9900+12 0107+07 0106+04 3518-08 3528-19 023933 024743 015454
PLB 2009 2515+14 2518+08 2909+04 3413-09 3317-18 322633 333043 355854
SYR 2113 2316+15 2613+09 3209+05 3114-08 3317-18 322132 342143 354654
CLE 2112 2411+17 2515+11 2716+06 2723-06 2716-16 271332 280641 330755
CMH 2009 2607+17 2711+11 2714+06 2817-06 2611-17 990032 990042 070955
CVG 2107 2511+17 2513+11 2415+05 2715-06 2509-16 990032 990043 080654
AGC 2006 2309+16 2807+10 2908+07 3113-07 3010-17 351232 361442 051154
AVP 2208 2210+13 9900+07 3509+04 3414-08 3624-18 012533 013242 014654
PSB      2608+14 2907+09 3206+06 3212-07 3415-17 352132 011842 012754
ORF 0608 9900+14 0106+10 3611+05 3320-07 3423-19 363634 013744 023955
RIC 0705 0205+14 3507+10 3308+06 3214-07 3422-18 353434 013444 043954
ROA 1506 9900+14 3109+09 3509+06 3306-07 2506-17 332132 363043 012855
CRW 9900 2506+16 3208+11 3312+06 3208-07 2609-16 281732 301543 011355
EKN      9900+15 2807+09 3408+06 3407-07 2912-16 332332 361743 052054